createdAt,value
2022-12-25T00:00:20.599Z,100966.94
2022-12-25T00:00:42.677Z,100963.44
2022-12-25T00:01:07.504Z,100969.47
2022-12-25T00:01:32.016Z,100973.78
2022-12-25T00:01:53.856Z,100972.00
2022-12-25T00:02:16.515Z,100966.50
2022-12-25T00:02:38.385Z,100966.50
2022-12-25T00:03:00.682Z,100967.25
2022-12-25T00:03:22.888Z,100975.16
2022-12-25T00:03:45.736Z,100972.50
2022-12-25T00:04:07.565Z,100969.72
2022-12-25T00:04:29.280Z,100969.66
2022-12-25T00:04:50.926Z,100970.59
2022-12-25T00:05:12.541Z,100968.84
2022-12-25T00:05:35.247Z,100970.72
2022-12-25T00:05:58.812Z,100963.63
2022-12-25T00:06:20.943Z,100970.59
2022-12-25T00:06:42.678Z,100964.44
2022-12-25T00:07:05.216Z,100964.44
2022-12-25T00:07:26.852Z,100960.97
2022-12-25T00:07:48.563Z,100968.91
2022-12-25T00:08:10.517Z,100974.13
2022-12-25T00:08:33.876Z,100972.28
2022-12-25T00:08:55.491Z,100963.47
2022-12-25T00:09:17.129Z,100929.56
2022-12-25T00:09:38.713Z,100973.13
2022-12-25T00:10:01.321Z,100975.75
2022-12-25T00:10:23.021Z,100982.00
2022-12-25T00:10:45.704Z,100970.53
2022-12-25T00:11:11.517Z,100959.88
2022-12-25T00:11:34.351Z,100974.00
2022-12-25T00:11:55.967Z,100970.53
2022-12-25T00:12:19.173Z,100972.28
2022-12-25T00:12:40.819Z,100975.00
2022-12-25T00:13:02.489Z,100968.84
2022-12-25T00:13:25.031Z,100966.41
2022-12-25T00:13:46.785Z,100973.38
2022-12-25T00:14:08.457Z,100977.81
2022-12-25T00:14:30.141Z,100972.50
2022-12-25T00:14:52.732Z,100977.81
2022-12-25T00:15:15.733Z,100975.16
2022-12-25T00:15:39.768Z,100973.47
2022-12-25T00:16:06.996Z,100971.63
2022-12-25T00:16:28.789Z,100972.50
2022-12-25T00:16:50.514Z,100967.22
2022-12-25T00:17:12.388Z,100962.88
2022-12-25T00:17:34.978Z,100974.28
2022-12-25T00:17:56.694Z,100968.13
2022-12-25T00:18:18.404Z,100963.75
2022-12-25T00:18:40.022Z,100973.47
2022-12-25T00:19:02.688Z,100974.47
2022-12-25T00:19:24.345Z,100970.00
2022-12-25T00:19:45.905Z,100968.13
2022-12-25T00:20:08.895Z,100974.47
2022-12-25T00:20:59.905Z,100973.59
2022-12-25T00:22:04.537Z,100976.19
2022-12-25T00:22:48.952Z,100979.88
2022-12-25T00:23:14.311Z,100953.06
2022-12-25T00:23:45.909Z,100973.00
2022-12-25T00:25:03.184Z,100975.75
2022-12-25T00:25:35.258Z,100967.78
2022-12-25T00:27:22.589Z,100970.44
2022-12-25T00:28:18.107Z,100962.53
2022-12-25T00:28:56.220Z,100966.97
2022-12-25T00:29:32.452Z,100967.84
2022-12-25T00:30:12.554Z,100966.16
2022-12-25T00:30:40.984Z,100965.28
2022-12-25T00:31:06.507Z,100940.91
2022-12-25T00:31:28.551Z,100966.16
2022-12-25T00:31:50.351Z,100967.00
2022-12-25T00:32:12.063Z,100966.16
2022-12-25T00:32:35.107Z,100966.16
2022-12-25T00:32:57.670Z,100963.56
2022-12-25T00:33:19.352Z,100968.94
2022-12-25T00:33:43.136Z,100962.69
2022-12-25T00:34:04.871Z,100969.75
2022-12-25T00:34:26.642Z,100959.19
2022-12-25T00:34:49.265Z,100972.34
2022-12-25T00:35:11.004Z,100965.19
2022-12-25T00:35:32.958Z,100966.06
2022-12-25T00:35:58.582Z,100966.84
2022-12-25T00:36:22.936Z,100963.31
2022-12-25T00:36:44.562Z,100962.44
2022-12-25T00:37:06.306Z,100965.09
2022-12-25T00:37:27.960Z,100961.66
2022-12-25T00:37:50.746Z,100964.44
2022-12-25T00:38:12.426Z,100960.81
2022-12-25T00:38:35.137Z,100956.66
2022-12-25T00:38:56.749Z,100947.81
2022-12-25T00:39:19.605Z,100960.72
2022-12-25T00:39:41.325Z,100961.66
2022-12-25T00:40:03.027Z,100963.44
2022-12-25T00:40:24.719Z,100965.28
2022-12-25T00:40:46.377Z,100961.66
2022-12-25T00:41:09.744Z,100961.69
2022-12-25T00:41:49.881Z,100958.09
2022-12-25T00:42:21.163Z,100963.44
2022-12-25T00:42:42.756Z,100962.56
2022-12-25T00:43:04.352Z,100961.66
2022-12-25T00:43:26.021Z,100963.44
2022-12-25T00:43:48.611Z,100965.34
2022-12-25T00:44:12.575Z,100961.75
2022-12-25T00:44:34.440Z,100965.28
2022-12-25T00:44:56.184Z,100947.81
2022-12-25T00:45:18.784Z,100961.69
2022-12-25T00:45:41.776Z,100959.09
2022-12-25T00:46:06.241Z,100963.66
2022-12-25T00:46:28.026Z,100957.53
2022-12-25T00:46:50.697Z,100958.41
2022-12-25T00:47:12.478Z,100963.59
2022-12-25T00:47:34.211Z,100965.50
2022-12-25T00:47:55.873Z,100965.44
2022-12-25T00:48:18.543Z,100962.84
2022-12-25T00:48:40.583Z,100956.56
2022-12-25T00:49:02.675Z,100966.31
2022-12-25T00:49:24.329Z,100959.22
2022-12-25T00:49:46.149Z,100960.97
2022-12-25T00:50:10.675Z,100956.69
2022-12-25T00:50:32.328Z,100956.53
2022-12-25T00:50:54.920Z,100968.09
2022-12-25T00:51:16.641Z,100962.84
2022-12-25T00:51:38.359Z,100967.19
2022-12-25T00:52:00.968Z,100973.50
2022-12-25T00:52:22.672Z,100967.22
2022-12-25T00:52:44.466Z,100969.03
2022-12-25T00:53:06.056Z,100962.78
2022-12-25T00:53:29.298Z,100968.00
2022-12-25T00:53:50.897Z,100967.94
2022-12-25T00:54:12.537Z,100967.94
2022-12-25T00:54:34.439Z,100971.44
2022-12-25T00:54:57.083Z,100973.34
2022-12-25T00:55:18.785Z,100961.84
2022-12-25T00:55:40.417Z,100966.25
2022-12-25T00:56:05.177Z,100958.44
2022-12-25T00:56:26.803Z,100966.25
2022-12-25T00:56:49.463Z,100969.88
2022-12-25T00:57:11.026Z,100973.34
2022-12-25T00:57:33.710Z,100972.50
2022-12-25T00:57:55.356Z,100967.34
2022-12-25T00:58:16.976Z,100977.03
2022-12-25T00:58:39.932Z,100982.25
2022-12-25T00:59:01.707Z,100980.50
2022-12-25T00:59:23.332Z,100977.81
2022-12-25T00:59:45.935Z,100983.09
2022-12-25T01:00:09.358Z,100979.69
2022-12-25T01:00:31.031Z,100968.09
2022-12-25T01:00:54.634Z,100973.41
2022-12-25T01:01:16.529Z,100971.53
2022-12-25T01:01:39.025Z,100969.69
2022-12-25T01:02:21.961Z,100973.34
2022-12-25T01:02:43.880Z,100972.41
2022-12-25T01:03:05.680Z,100971.63
2022-12-25T01:03:28.887Z,100970.75
2022-12-25T01:03:50.570Z,100971.63
2022-12-25T01:04:12.617Z,100970.72
2022-12-25T01:04:34.290Z,100973.41
2022-12-25T01:04:57.088Z,100972.63
2022-12-25T01:05:19.720Z,100978.66
2022-12-25T01:05:41.426Z,100968.09
2022-12-25T01:06:05.357Z,100975.16
2022-12-25T01:06:28.321Z,100976.78
2022-12-25T01:06:50.876Z,100969.75
2022-12-25T01:07:12.556Z,100979.53
2022-12-25T01:07:34.167Z,100976.00
2022-12-25T01:07:55.753Z,100980.50
2022-12-25T01:08:17.624Z,100978.66
2022-12-25T01:09:04.305Z,100971.59
2022-12-25T01:09:44.488Z,100976.78
2022-12-25T01:10:22.394Z,100973.41
2022-12-25T01:10:43.986Z,100972.53
2022-12-25T01:11:08.481Z,100970.84
2022-12-25T01:11:30.803Z,100969.88
2022-12-25T01:11:52.589Z,100977.81
2022-12-25T01:12:14.286Z,100976.03
2022-12-25T01:18:05.658Z,100965.97
2022-12-25T01:18:55.997Z,100968.63
2022-12-25T01:22:38.443Z,100973.78
2022-12-25T01:23:16.219Z,100974.78
2022-12-25T01:23:38.457Z,100982.13
2022-12-25T01:24:00.141Z,100978.50
2022-12-25T01:24:21.731Z,100978.41
2022-12-25T01:24:43.522Z,100982.03
2022-12-25T01:25:06.575Z,100975.75
2022-12-25T01:25:28.139Z,100983.72
2022-12-25T01:25:49.800Z,100981.03
2022-12-25T01:26:13.489Z,100981.03
2022-12-25T01:26:36.085Z,100975.66
2022-12-25T01:26:57.686Z,100973.91
2022-12-25T01:27:19.388Z,100981.81
2022-12-25T01:27:41.798Z,100975.72
2022-12-25T01:28:04.696Z,100968.72
2022-12-25T01:28:26.338Z,100973.09
2022-12-25T01:28:49.185Z,100975.53
2022-12-25T01:29:10.802Z,100983.47
2022-12-25T01:29:33.404Z,100973.72
2022-12-25T01:29:54.981Z,100977.22
2022-12-25T01:30:16.818Z,100975.41
2022-12-25T01:30:38.445Z,100981.63
2022-12-25T01:31:01.163Z,100978.00
2022-12-25T01:31:24.914Z,100976.13
2022-12-25T01:31:46.627Z,100968.47
2022-12-25T01:32:08.379Z,100981.56
2022-12-25T01:32:31.039Z,100980.56
2022-12-25T01:32:52.953Z,100951.78
2022-12-25T01:33:30.734Z,100985.00
2022-12-25T01:36:08.676Z,100983.16
2022-12-25T01:38:37.935Z,100979.66
2022-12-25T01:39:01.216Z,100976.28
2022-12-25T01:39:22.922Z,100972.59
2022-12-25T01:39:44.593Z,100967.50
2022-12-25T01:40:08.686Z,100975.16
2022-12-25T01:40:30.258Z,100977.72
2022-12-25T01:40:52.844Z,100967.09
2022-12-25T01:41:17.643Z,100973.25
2022-12-25T01:41:39.296Z,100972.34
2022-12-25T01:42:02.027Z,100975.75
2022-12-25T01:42:24.145Z,100970.31
2022-12-25T01:42:46.030Z,100974.81
2022-12-25T01:43:39.782Z,100894.00
2022-12-25T01:44:06.120Z,100970.31
2022-12-25T01:45:25.564Z,100964.22
2022-12-25T01:45:49.462Z,100973.00
2022-12-25T01:46:11.198Z,100971.28
2022-12-25T01:46:33.142Z,100970.41
2022-12-25T01:46:54.796Z,100975.75
2022-12-25T01:47:18.815Z,100968.84
2022-12-25T01:47:41.004Z,100970.59
2022-12-25T01:48:08.614Z,100968.78
2022-12-25T01:48:33.915Z,100966.34
2022-12-25T01:48:59.811Z,100973.38
2022-12-25T01:49:25.575Z,100966.13
2022-12-25T01:49:50.754Z,100970.41
2022-12-25T01:50:12.440Z,100967.66
2022-12-25T01:50:36.161Z,100968.50
2022-12-25T01:51:02.914Z,100961.50
2022-12-25T01:51:28.882Z,100958.66
2022-12-25T01:51:56.324Z,100968.38
2022-12-25T01:52:24.132Z,100959.38
2022-12-25T01:52:47.663Z,100966.53
2022-12-25T01:53:10.422Z,100965.56
2022-12-25T01:53:32.378Z,100959.38
2022-12-25T01:53:55.749Z,100963.03
2022-12-25T01:54:21.258Z,100966.38
2022-12-25T01:54:48.542Z,100964.66
2022-12-25T01:55:11.819Z,100965.56
2022-12-25T01:55:35.183Z,100970.03
2022-12-25T01:56:01.422Z,100966.50
2022-12-25T01:56:23.082Z,100961.28
2022-12-25T01:56:49.043Z,100966.53
2022-12-25T01:57:16.420Z,100960.28
2022-12-25T01:57:39.823Z,100961.34
2022-12-25T01:58:03.390Z,100968.47
2022-12-25T01:58:25.557Z,100970.31
2022-12-25T01:58:47.467Z,100967.88
2022-12-25T01:59:10.689Z,100972.41
2022-12-25T01:59:32.450Z,100973.38
2022-12-25T01:59:57.285Z,100975.03
2022-12-25T02:00:19.338Z,100972.38
2022-12-25T02:00:41.102Z,100973.13
2022-12-25T02:01:02.813Z,100976.66
2022-12-25T02:01:25.726Z,100974.94
2022-12-25T02:01:48.067Z,100968.78
2022-12-25T02:02:11.855Z,100969.63
2022-12-25T02:02:33.958Z,100972.34
2022-12-25T02:02:57.352Z,100978.41
2022-12-25T02:03:19.973Z,100972.34
2022-12-25T02:03:42.385Z,100975.97
2022-12-25T02:04:13.241Z,100970.63
2022-12-25T02:04:41.916Z,100975.75
2022-12-25T02:05:09.854Z,100973.91
2022-12-25T02:05:33.807Z,100977.50
2022-12-25T02:05:56.437Z,100972.16
2022-12-25T02:06:19.500Z,100973.00
2022-12-25T02:06:41.739Z,100971.28
2022-12-25T02:07:03.408Z,100982.66
2022-12-25T02:07:27.002Z,100974.66
2022-12-25T02:07:50.656Z,100975.53
2022-12-25T02:08:16.413Z,100978.06
2022-12-25T02:08:38.292Z,100980.75
2022-12-25T02:09:00.899Z,100976.19
2022-12-25T02:09:22.503Z,100986.06
2022-12-25T02:09:45.196Z,100984.34
2022-12-25T02:10:08.989Z,100974.50
2022-12-25T02:10:31.641Z,100967.38
2022-12-25T02:10:53.647Z,100972.50
2022-12-25T02:11:35.807Z,100979.44
2022-12-25T02:11:57.446Z,100976.78
2022-12-25T02:12:22.076Z,100977.66
2022-12-25T02:12:46.066Z,100978.38
2022-12-25T02:13:08.173Z,100981.06
2022-12-25T02:13:30.057Z,100981.91
2022-12-25T02:13:51.785Z,100974.78
2022-12-25T02:14:14.452Z,100984.56
2022-12-25T02:14:37.750Z,100975.97
2022-12-25T02:15:06.042Z,100976.78
2022-12-25T02:15:36.144Z,100973.25
2022-12-25T02:16:06.466Z,100973.28
2022-12-25T02:16:35.535Z,100969.72
2022-12-25T02:17:28.386Z,100975.00
2022-12-25T02:18:00.114Z,100970.63
2022-12-25T02:18:33.670Z,100976.97
2022-12-25T02:19:04.004Z,100985.75
2022-12-25T02:19:44.653Z,100983.91
2022-12-25T02:20:36.887Z,100985.66
2022-12-25T02:21:38.637Z,100981.13
2022-12-25T02:22:11.570Z,100982.13
2022-12-25T02:22:44.578Z,100981.94
2022-12-25T02:23:45.286Z,100978.38
2022-12-25T02:24:38.616Z,100986.44
2022-12-25T02:25:17.008Z,100980.41
2022-12-25T02:25:53.416Z,100983.78
2022-12-25T02:26:22.596Z,100975.88
2022-12-25T02:27:00.903Z,100975.56
2022-12-25T02:27:36.842Z,100967.59
2022-12-25T02:28:10.917Z,100978.16
2022-12-25T02:28:45.342Z,100971.94
2022-12-25T02:29:17.231Z,100977.28
2022-12-25T02:29:51.646Z,100978.16
2022-12-25T02:30:13.509Z,100971.13
2022-12-25T02:30:40.140Z,100977.19
2022-12-25T02:31:10.872Z,100980.19
2022-12-25T02:31:38.791Z,100971.34
2022-12-25T02:32:05.383Z,100978.94
2022-12-25T02:32:32.062Z,100980.66
2022-12-25T02:33:14.223Z,100979.59
2022-12-25T02:34:00.766Z,100984.81
2022-12-25T02:34:29.308Z,100981.22
2022-12-25T02:34:56.671Z,100986.44
2022-12-25T02:35:26.895Z,100984.59
2022-12-25T02:35:55.317Z,100991.63
2022-12-25T02:36:24.040Z,100984.00
2022-12-25T02:36:50.688Z,100990.97
2022-12-25T02:37:17.493Z,100989.16
2022-12-25T02:37:45.140Z,100990.03
2022-12-25T02:38:14.472Z,100982.03
2022-12-25T02:39:01.210Z,100992.72
2022-12-25T02:39:49.551Z,100982.03
2022-12-25T02:40:18.405Z,100980.19
2022-12-25T02:40:50.331Z,100984.59
2022-12-25T02:41:20.354Z,100982.03
2022-12-25T02:41:48.790Z,100987.25
2022-12-25T02:42:20.633Z,100983.66
2022-12-25T02:43:09.384Z,100980.19
2022-12-25T02:43:55.692Z,100981.00
2022-12-25T02:44:40.604Z,100977.47
2022-12-25T02:45:24.497Z,100980.09
2022-12-25T02:46:08.700Z,100984.53
2022-12-25T02:46:51.783Z,100983.63
2022-12-25T02:47:44.459Z,100989.63
2022-12-25T02:48:26.673Z,100990.50
2022-12-25T02:49:08.500Z,100988.66
2022-12-25T02:49:49.615Z,100993.84
2022-12-25T02:50:31.129Z,100988.47
2022-12-25T02:51:13.055Z,100996.47
2022-12-25T02:51:58.985Z,100998.22
2022-12-25T02:52:42.379Z,100989.31
2022-12-25T02:53:25.713Z,100992.88
2022-12-25T02:54:10.009Z,100993.75
2022-12-25T02:54:57.715Z,100978.91
2022-12-25T02:55:40.730Z,100988.47
2022-12-25T02:56:21.908Z,100991.19
2022-12-25T02:57:05.146Z,100982.31
2022-12-25T02:57:50.681Z,100985.94
2022-12-25T02:58:35.303Z,100985.09
2022-12-25T02:59:18.917Z,100986.91
2022-12-25T03:00:02.396Z,100994.09
2022-12-25T03:00:42.992Z,100985.97
2022-12-25T03:01:27.385Z,100989.56
2022-12-25T03:02:08.347Z,100981.56
2022-12-25T03:02:49.758Z,100988.66
2022-12-25T03:03:33.585Z,100985.06
2022-12-25T03:04:18.338Z,100984.16
2022-12-25T03:05:00.163Z,100984.25
2022-12-25T03:05:44.044Z,100972.97
2022-12-25T03:06:26.292Z,100979.13
2022-12-25T03:07:02.375Z,100980.09
2022-12-25T03:07:26.182Z,100976.59
2022-12-25T03:07:48.010Z,100977.50
2022-12-25T03:08:14.865Z,100979.31
2022-12-25T03:08:41.542Z,100970.56
2022-12-25T03:09:22.213Z,100974.97
2022-12-25T03:10:16.042Z,100983.66
2022-12-25T03:11:02.827Z,100977.47
2022-12-25T03:11:33.614Z,100974.84
2022-12-25T03:11:59.402Z,100979.47
2022-12-25T03:12:30.786Z,100977.69
2022-12-25T03:12:56.748Z,100972.41
2022-12-25T03:13:22.249Z,100971.47
2022-12-25T03:13:46.877Z,100978.56
2022-12-25T03:14:28.313Z,100971.44
2022-12-25T03:15:08.635Z,100970.44
2022-12-25T03:15:50.560Z,100970.34
2022-12-25T03:16:36.464Z,100964.09
2022-12-25T03:17:00.337Z,100970.34
2022-12-25T03:17:22.142Z,100965.00
2022-12-25T03:17:43.988Z,100960.59
2022-12-25T03:18:09.889Z,100963.38
2022-12-25T03:18:34.405Z,100965.06
2022-12-25T03:18:58.293Z,100966.94
2022-12-25T03:19:40.730Z,100964.19
2022-12-25T03:20:21.992Z,100960.47
2022-12-25T03:21:02.445Z,100958.75
2022-12-25T03:21:42.983Z,100961.47
2022-12-25T03:22:25.439Z,100963.31
2022-12-25T03:23:06.674Z,100953.69
2022-12-25T03:23:50.593Z,100966.16
2022-12-25T03:24:30.043Z,100966.16
2022-12-25T03:25:10.391Z,100961.00
2022-12-25T03:26:02.891Z,100969.84
2022-12-25T03:26:44.207Z,100964.47
2022-12-25T03:27:06.779Z,100961.88
2022-12-25T03:27:31.932Z,100962.16
2022-12-25T03:27:55.324Z,100962.91
2022-12-25T03:28:17.180Z,100956.72
2022-12-25T03:28:39.772Z,100956.66
2022-12-25T03:29:01.753Z,100963.69
2022-12-25T03:29:45.308Z,100961.16
2022-12-25T03:30:26.811Z,100961.88
2022-12-25T03:31:21.404Z,100970.03
2022-12-25T03:31:51.937Z,100959.41
2022-12-25T03:32:23.612Z,100952.25
2022-12-25T03:32:52.257Z,100956.66
2022-12-25T03:33:44.545Z,100960.13
2022-12-25T03:34:40.410Z,100954.69
2022-12-25T03:35:25.294Z,100949.09
2022-12-25T03:36:02.829Z,100950.81
2022-12-25T03:36:34.040Z,100950.84
2022-12-25T03:37:18.224Z,100957.00
2022-12-25T03:38:12.022Z,100936.75
2022-12-25T03:39:02.597Z,100949.72
2022-12-25T03:39:45.904Z,100947.06
2022-12-25T03:40:34.391Z,100947.16
2022-12-25T03:41:21.218Z,100929.47
2022-12-25T03:42:06.179Z,100942.59
2022-12-25T03:42:54.279Z,100938.31
2022-12-25T03:43:42.434Z,100940.91
2022-12-25T03:44:36.803Z,100942.75
2022-12-25T03:45:20.630Z,100946.44
2022-12-25T03:46:04.994Z,100939.16
2022-12-25T03:46:50.798Z,100945.47
2022-12-25T03:47:36.347Z,100939.09
2022-12-25T03:48:18.214Z,100937.31
2022-12-25T03:49:02.241Z,100936.25
2022-12-25T03:49:49.753Z,100938.88
2022-12-25T03:50:36.163Z,100925.13
2022-12-25T03:51:22.108Z,100925.13
2022-12-25T03:52:04.383Z,100929.31
2022-12-25T03:52:47.368Z,100924.91
2022-12-25T03:53:32.010Z,100924.09
2022-12-25T03:54:16.509Z,100928.63
2022-12-25T03:55:01.562Z,100928.44
2022-12-25T03:55:54.981Z,100925.78
2022-12-25T03:56:36.523Z,100922.97
2022-12-25T03:57:16.862Z,100919.47
2022-12-25T03:57:56.873Z,100921.13
2022-12-25T03:58:38.288Z,100912.50
2022-12-25T03:59:24.052Z,100915.06
2022-12-25T04:00:04.668Z,100913.09
2022-12-25T04:00:52.841Z,100907.75
2022-12-25T04:01:38.814Z,100903.34
2022-12-25T04:02:22.324Z,100906.84
2022-12-25T04:03:06.863Z,100898.06
2022-12-25T04:03:54.747Z,100895.72
2022-12-25T04:04:37.910Z,100896.84
2022-12-25T04:05:18.856Z,100891.31
2022-12-25T04:06:00.583Z,100889.56
2022-12-25T04:06:41.000Z,100886.19
2022-12-25T04:07:21.018Z,100895.75
2022-12-25T04:08:04.868Z,100889.38
2022-12-25T04:08:56.318Z,100890.34
2022-12-25T04:09:38.333Z,100895.59
2022-12-25T04:10:21.434Z,100897.50
2022-12-25T04:11:03.329Z,100902.88
2022-12-25T04:11:46.058Z,100902.13
2022-12-25T04:12:26.739Z,100913.63
2022-12-25T04:13:10.373Z,100914.59
2022-12-25T04:13:50.756Z,100914.72
2022-12-25T04:14:31.024Z,100916.44
2022-12-25T04:15:12.162Z,100919.91
2022-12-25T04:15:54.410Z,100918.09
2022-12-25T04:16:37.274Z,100917.13
2022-12-25T04:17:18.928Z,100921.63
2022-12-25T04:17:59.346Z,100914.47
2022-12-25T04:18:40.606Z,100918.00
2022-12-25T04:19:21.410Z,100907.75
2022-12-25T04:20:00.923Z,100912.97
2022-12-25T04:20:41.052Z,100920.06
2022-12-25T04:21:21.515Z,100915.63
2022-12-25T04:22:01.749Z,100919.19
2022-12-25T04:22:42.105Z,100925.47
2022-12-25T04:23:22.435Z,100930.63
2022-12-25T04:24:02.772Z,100933.19
2022-12-25T04:24:43.237Z,100926.13
2022-12-25T04:25:23.949Z,100928.63
2022-12-25T04:26:04.427Z,100928.56
2022-12-25T04:26:44.795Z,100927.66
2022-12-25T04:27:25.195Z,100931.22
2022-12-25T04:28:05.205Z,100931.41
2022-12-25T04:28:45.648Z,100937.63
2022-12-25T04:29:25.999Z,100940.38
2022-12-25T04:30:06.225Z,100942.25
2022-12-25T04:30:46.596Z,100944.09
2022-12-25T04:31:28.131Z,100937.94
2022-12-25T04:32:08.638Z,100931.63
2022-12-25T04:32:49.079Z,100933.59
2022-12-25T04:33:29.439Z,100934.50
2022-12-25T04:34:09.849Z,100931.81
2022-12-25T04:34:49.782Z,100936.91
2022-12-25T04:35:30.385Z,100930.63
2022-12-25T04:36:11.349Z,100922.63
2022-12-25T04:36:32.939Z,100929.66
2022-12-25T04:36:54.500Z,100930.47
2022-12-25T04:37:16.288Z,100926.00
2022-12-25T04:37:37.885Z,100929.63
2022-12-25T04:38:00.494Z,100930.81
2022-12-25T04:38:22.302Z,100921.06
2022-12-25T04:38:44.264Z,100923.47
2022-12-25T04:39:05.887Z,100929.47
2022-12-25T04:39:27.510Z,100930.34
2022-12-25T04:39:49.100Z,100932.19
2022-12-25T04:40:12.221Z,100926.78
2022-12-25T04:40:33.949Z,100937.34
2022-12-25T04:40:55.581Z,100939.28
2022-12-25T04:41:17.329Z,100931.28
2022-12-25T04:41:38.956Z,100936.75
2022-12-25T04:42:01.516Z,100933.13
2022-12-25T04:42:23.140Z,100937.53
2022-12-25T04:42:44.989Z,100934.94
2022-12-25T04:43:06.628Z,100929.47
2022-12-25T04:43:28.541Z,100933.06
2022-12-25T04:43:51.167Z,100931.28
2022-12-25T04:44:12.888Z,100932.16
2022-12-25T04:44:34.679Z,100939.16
2022-12-25T04:44:56.322Z,100932.03
2022-12-25T04:45:18.328Z,100930.22
2022-12-25T04:45:39.995Z,100929.53
2022-12-25T04:46:04.093Z,100928.63
2022-12-25T04:46:27.137Z,100926.25
2022-12-25T04:46:48.832Z,100927.00
2022-12-25T04:47:11.734Z,100921.53
2022-12-25T04:47:34.559Z,100921.53
2022-12-25T04:47:58.794Z,100914.31
2022-12-25T04:48:20.495Z,100923.97
2022-12-25T04:48:42.083Z,100929.31
2022-12-25T04:49:03.789Z,100925.81
2022-12-25T04:49:26.402Z,100924.19
2022-12-25T04:49:47.999Z,100927.66
2022-12-25T04:50:10.151Z,100925.91
2022-12-25T04:50:31.746Z,100927.09
2022-12-25T04:50:54.353Z,100929.00
2022-12-25T04:51:18.164Z,100924.56
2022-12-25T04:51:39.841Z,100925.25
2022-12-25T04:52:01.448Z,100921.66
2022-12-25T04:52:24.067Z,100918.97
2022-12-25T04:52:45.830Z,100926.47
2022-12-25T04:53:07.474Z,100934.38
2022-12-25T04:53:29.032Z,100919.19
2022-12-25T04:53:51.897Z,100916.25
2022-12-25T04:54:14.562Z,100925.47
2022-12-25T04:54:38.010Z,100922.91
2022-12-25T04:54:59.662Z,100929.06
2022-12-25T04:55:21.441Z,100924.56
2022-12-25T04:55:43.394Z,100915.88
2022-12-25T04:56:05.609Z,100922.75
2022-12-25T04:56:28.213Z,100921.84
2022-12-25T04:56:49.827Z,100923.50
2022-12-25T04:57:11.460Z,100925.72
2022-12-25T04:57:33.368Z,100923.34
2022-12-25T04:57:55.076Z,100918.06
2022-12-25T04:58:17.707Z,100919.56
2022-12-25T04:58:39.424Z,100923.84
2022-12-25T04:59:01.207Z,100917.47
2022-12-25T04:59:23.048Z,100915.50
2022-12-25T04:59:44.641Z,100912.16
2022-12-25T05:00:07.471Z,100906.72
2022-12-25T05:00:30.156Z,100909.22
2022-12-25T05:00:51.917Z,100913.63
2022-12-25T05:01:14.921Z,100916.34
2022-12-25T05:01:38.052Z,100904.13
2022-12-25T05:02:00.768Z,100916.34
2022-12-25T05:02:22.835Z,100918.09
2022-12-25T05:02:44.767Z,100912.63
2022-12-25T05:03:06.710Z,100907.53
2022-12-25T05:03:29.156Z,100919.78
2022-12-25T05:03:50.961Z,100914.47
2022-12-25T05:04:13.634Z,100914.38
2022-12-25T05:04:35.254Z,100915.16
2022-12-25T05:04:56.930Z,100915.09
2022-12-25T05:05:18.781Z,100904.28
2022-12-25T05:05:40.645Z,100920.06
2022-12-25T05:06:03.647Z,100917.75
2022-12-25T05:06:25.236Z,100911.34
2022-12-25T05:06:46.827Z,100920.09
2022-12-25T05:07:08.461Z,100916.38
2022-12-25T05:07:30.136Z,100914.81
2022-12-25T05:07:52.867Z,100921.94
2022-12-25T05:08:14.553Z,100919.19
2022-12-25T05:08:37.030Z,100918.34
2022-12-25T05:08:58.753Z,100913.75
2022-12-25T05:09:20.392Z,100921.66
2022-12-25T05:09:42.976Z,100922.41
2022-12-25T05:10:05.023Z,100916.97
2022-12-25T05:10:26.733Z,100916.91
2022-12-25T05:10:48.765Z,100920.44
2022-12-25T05:11:13.076Z,100921.19
2022-12-25T05:11:35.651Z,100920.22
2022-12-25T05:11:57.261Z,100915.66
2022-12-25T05:12:18.875Z,100918.25
2022-12-25T05:12:40.453Z,100913.00
2022-12-25T05:13:02.979Z,100916.63
2022-12-25T05:13:24.941Z,100915.84
2022-12-25T05:13:46.603Z,100909.72
2022-12-25T05:14:08.279Z,100906.94
2022-12-25T05:14:30.008Z,100910.53
2022-12-25T05:14:52.669Z,100917.22
2022-12-25T05:15:14.346Z,100897.72
2022-12-25T05:15:38.996Z,100904.69
2022-12-25T05:16:00.748Z,100904.69
2022-12-25T05:16:22.407Z,100896.63
2022-12-25T05:16:46.425Z,100895.72
2022-12-25T05:17:08.233Z,100900.00
2022-12-25T05:17:29.909Z,100892.00
2022-12-25T05:17:51.535Z,100901.59
2022-12-25T05:18:13.283Z,100902.53
2022-12-25T05:18:35.951Z,100903.34
2022-12-25T05:18:57.684Z,100895.72
2022-12-25T05:19:19.296Z,100897.72
2022-12-25T05:19:40.899Z,100905.53
2022-12-25T05:20:02.569Z,100891.47
2022-12-25T05:20:25.273Z,100892.03
2022-12-25T05:20:52.449Z,100902.47
2022-12-25T05:21:14.458Z,100902.34
2022-12-25T05:21:36.235Z,100889.97
2022-12-25T05:21:58.799Z,100896.91
2022-12-25T05:22:20.353Z,100896.78
2022-12-25T05:22:42.231Z,100889.69
2022-12-25T05:23:03.856Z,100894.06
2022-12-25T05:23:26.402Z,100893.19
2022-12-25T05:23:50.597Z,100893.19
2022-12-25T05:24:12.185Z,100895.81
2022-12-25T05:24:33.915Z,100895.81
2022-12-25T05:24:56.412Z,100892.28
2022-12-25T05:25:18.070Z,100894.06
2022-12-25T05:25:39.999Z,100888.59
2022-12-25T05:26:04.876Z,100894.06
2022-12-25T05:26:27.398Z,100887.84
2022-12-25T05:26:49.930Z,100890.47
2022-12-25T05:27:11.483Z,100888.97
2022-12-25T05:27:33.085Z,100884.44
2022-12-25T05:27:54.689Z,100887.22
2022-12-25T05:28:16.591Z,100882.66
2022-12-25T05:28:39.258Z,100885.25
2022-12-25T05:29:00.969Z,100876.47
2022-12-25T05:29:22.582Z,100878.25
2022-12-25T05:29:44.297Z,100881.69
2022-12-25T05:30:07.759Z,100875.59
2022-12-25T05:30:30.348Z,100885.00
2022-12-25T05:30:52.019Z,100873.19
2022-12-25T05:31:13.942Z,100874.16
2022-12-25T05:31:35.713Z,100871.59
2022-12-25T05:31:59.650Z,100875.06
2022-12-25T05:32:21.349Z,100870.72
2022-12-25T05:32:43.131Z,100868.94
2022-12-25T05:33:04.906Z,100876.06
2022-12-25T05:33:27.593Z,100880.50
2022-12-25T05:33:50.011Z,100878.97
2022-12-25T05:34:11.725Z,100874.22
2022-12-25T05:34:33.571Z,100879.25
2022-12-25T05:34:55.180Z,100879.13
2022-12-25T05:35:17.074Z,100871.91
2022-12-25T05:35:40.518Z,100877.97
2022-12-25T05:36:03.429Z,100875.25
2022-12-25T05:36:25.130Z,100868.13
2022-12-25T05:36:46.824Z,100876.06
2022-12-25T05:37:08.530Z,100871.69
2022-12-25T05:37:30.609Z,100872.47
2022-12-25T05:37:53.459Z,100864.41
2022-12-25T05:38:15.032Z,100870.66
2022-12-25T05:38:37.190Z,100870.63
2022-12-25T05:38:58.779Z,100874.16
2022-12-25T05:39:20.468Z,100870.53
2022-12-25T05:39:43.005Z,100869.00
2022-12-25T05:40:07.180Z,100867.19
2022-12-25T05:40:28.802Z,100864.50
2022-12-25T05:40:51.511Z,100871.59